createdAt,value
2022-12-22T00:04:52.211Z,99671.78
2022-12-22T00:10:12.279Z,99661.84
2022-12-22T00:15:32.442Z,99654.09
2022-12-22T00:20:53.975Z,99637.53
2022-12-22T00:26:14.704Z,99634.97
2022-12-22T00:31:34.808Z,99629.59
2022-12-22T00:36:56.837Z,99629.91
2022-12-22T00:42:17.455Z,99625.22
2022-12-22T00:47:42.371Z,99615.59
2022-12-22T00:53:04.371Z,99614.75
2022-12-22T00:58:27.572Z,99604.84
2022-12-22T01:03:47.969Z,99597.94
2022-12-22T01:09:09.883Z,99591.72
2022-12-22T01:14:30.441Z,99583.75
2022-12-22T01:19:50.576Z,99570.19
2022-12-22T01:25:12.153Z,99565.78
2022-12-22T01:30:32.662Z,99555.03
2022-12-22T01:35:53.102Z,99523.78
2022-12-22T01:41:14.612Z,99508.50
2022-12-22T01:46:39.432Z,99503.97
2022-12-22T01:51:59.958Z,99499.44
2022-12-22T01:57:21.468Z,99491.53
2022-12-22T02:02:41.757Z,99485.44
2022-12-22T02:08:13.204Z,99473.69
2022-12-22T02:13:40.373Z,99461.41
2022-12-22T02:19:02.360Z,99448.66
2022-12-22T02:24:29.618Z,99447.66
2022-12-22T02:29:52.438Z,99442.28
2022-12-22T02:35:12.622Z,99443.97
2022-12-22T02:40:41.053Z,99437.75
2022-12-22T02:46:05.271Z,99433.00
2022-12-22T02:51:27.215Z,99428.78
2022-12-22T02:56:47.268Z,99419.78
2022-12-22T03:02:09.222Z,99425.22
2022-12-22T03:07:29.856Z,99411.69
2022-12-22T03:12:49.938Z,99409.41
2022-12-22T03:18:11.377Z,99407.91
2022-12-22T03:23:31.512Z,99397.31
2022-12-22T03:28:34.335Z,99392.22
2022-12-22T03:33:38.561Z,99385.47
2022-12-22T03:38:41.402Z,99382.50
2022-12-22T03:44:13.175Z,99378.41
2022-12-22T03:49:19.362Z,99374.44
2022-12-22T03:54:22.835Z,99373.16
2022-12-22T03:59:25.765Z,99369.91
2022-12-22T04:04:29.930Z,99370.31
2022-12-22T04:09:32.676Z,99371.44
2022-12-22T04:14:35.580Z,99359.28
2022-12-22T04:19:39.739Z,99357.88
2022-12-22T04:24:42.541Z,99350.97
2022-12-22T04:29:45.330Z,99349.56
2022-12-22T04:34:49.470Z,99344.34
2022-12-22T04:39:52.349Z,99348.13
2022-12-22T04:44:55.220Z,99338.53
2022-12-22T04:49:59.708Z,99335.56
2022-12-22T04:55:02.662Z,99330.34
2022-12-22T05:00:06.293Z,99321.31
2022-12-22T05:05:11.133Z,99315.09
2022-12-22T05:10:13.974Z,99309.03
2022-12-22T05:15:16.897Z,99301.00
2022-12-22T05:20:21.079Z,99302.00
2022-12-22T05:25:23.886Z,99297.63
2022-12-22T05:30:27.133Z,99295.09
2022-12-22T05:35:31.422Z,99279.16
2022-12-22T05:40:34.517Z,99282.78
2022-12-22T05:45:37.276Z,99274.19
2022-12-22T05:50:41.407Z,99271.66
2022-12-22T05:55:44.368Z,99267.56
2022-12-22T06:00:47.183Z,99262.47
2022-12-22T06:05:51.925Z,99261.06
2022-12-22T06:10:54.993Z,99252.59
2022-12-22T06:15:57.855Z,99254.72
2022-12-22T06:21:02.300Z,99248.50
2022-12-22T06:26:05.312Z,99231.84
2022-12-22T06:31:08.347Z,99225.78
2022-12-22T06:36:12.912Z,99220.72
2022-12-22T06:41:35.664Z,99197.75
2022-12-22T06:46:38.870Z,99206.03
2022-12-22T06:51:43.195Z,99195.47
2022-12-22T06:56:45.952Z,99195.63
2022-12-22T07:01:49.113Z,99198.59
2022-12-22T07:06:53.330Z,99201.53
2022-12-22T07:11:56.140Z,99191.94
2022-12-22T07:16:58.888Z,99193.88
2022-12-22T07:22:03.401Z,99195.88
2022-12-22T07:27:06.675Z,99197.81
2022-12-22T07:32:09.830Z,99190.75
2022-12-22T07:37:14.863Z,99183.16
2022-12-22T07:42:37.413Z,99181.47
2022-12-22T07:47:40.238Z,99183.41
2022-12-22T07:52:44.669Z,99177.34
2022-12-22T07:57:47.464Z,99159.91
2022-12-22T08:02:50.738Z,99159.75
2022-12-22T08:07:54.985Z,99163.97
2022-12-22T08:12:58.008Z,99154.69
2022-12-22T08:18:00.905Z,99147.75
2022-12-22T08:23:05.149Z,99149.03
2022-12-22T08:28:07.991Z,99136.47
2022-12-22T08:33:10.824Z,99141.69
2022-12-22T08:38:15.043Z,99132.81
2022-12-22T08:43:17.871Z,99124.66
2022-12-22T08:48:21.502Z,99130.84
2022-12-22T08:54:03.273Z,99119.59
2022-12-22T08:58:48.572Z,99124.25
2022-12-22T09:03:52.067Z,99113.00
2022-12-22T09:08:57.400Z,99108.78
2022-12-22T09:14:01.054Z,99107.53
2022-12-22T09:19:04.002Z,99097.38
2022-12-22T09:24:09.303Z,99098.22
2022-12-22T09:29:14.691Z,99088.63
2022-12-22T09:34:18.770Z,99075.94
2022-12-22T09:39:28.605Z,99073.69
2022-12-22T09:44:33.718Z,99061.41
2022-12-22T09:49:37.140Z,99064.25
2022-12-22T09:54:41.585Z,99064.38
2022-12-22T09:59:44.599Z,99056.91
2022-12-22T10:04:54.762Z,99053.25
2022-12-22T10:09:58.955Z,99045.66
2022-12-22T10:15:01.917Z,99037.88
2022-12-22T10:20:10.696Z,99030.53
2022-12-22T10:25:39.917Z,99028.00
2022-12-22T10:31:10.190Z,99022.91
2022-12-22T10:36:13.894Z,99022.22
2022-12-22T10:41:19.363Z,99032.09
2022-12-22T10:46:31.583Z,99033.09
2022-12-22T10:51:35.036Z,99023.06
2022-12-22T10:56:39.227Z,99009.97
2022-12-22T11:01:42.145Z,99014.50
2022-12-22T11:06:45.160Z,99019.69
2022-12-22T11:11:51.805Z,99010.13
2022-12-22T11:16:57.659Z,99005.47
2022-12-22T11:22:03.084Z,98989.94
2022-12-22T11:27:17.817Z,98986.16
2022-12-22T11:32:31.622Z,98977.97
2022-12-22T11:37:38.103Z,98975.16
2022-12-22T11:42:54.935Z,98969.81
2022-12-22T11:48:00.688Z,98951.47
2022-12-22T11:53:16.899Z,98964.31
2022-12-22T11:58:28.738Z,98979.56
2022-12-22T12:03:42.114Z,98968.97
2022-12-22T12:08:53.509Z,98980.81
2022-12-22T12:14:01.308Z,98975.72
2022-12-22T12:19:28.546Z,98975.88
2022-12-22T12:24:42.369Z,98984.75
2022-12-22T12:30:13.513Z,98980.38
2022-12-22T12:35:23.164Z,98976.16
2022-12-22T12:40:30.716Z,98968.28
2022-12-22T12:45:36.892Z,98970.38
2022-12-22T12:50:40.007Z,98974.75
2022-12-22T12:55:59.522Z,98970.38
2022-12-22T13:01:04.122Z,98973.91
2022-12-22T13:06:07.804Z,98981.22
2022-12-22T13:11:52.229Z,98992.22
2022-12-22T13:16:44.213Z,98989.28
2022-12-22T13:21:55.049Z,99000.97
2022-12-22T13:27:02.853Z,99005.47
2022-12-22T13:32:16.990Z,99017.16
2022-12-22T13:37:21.488Z,99035.06
2022-12-22T13:42:24.460Z,99061.00
2022-12-22T13:47:28.737Z,99054.78
2022-12-22T13:52:31.524Z,99066.44
2022-12-22T13:57:34.637Z,99071.94
2022-12-22T14:02:38.905Z,99088.16
2022-12-22T14:07:41.793Z,99098.84
2022-12-22T14:12:46.099Z,99104.34
2022-12-22T14:17:53.096Z,99116.88
2022-12-22T14:22:57.634Z,99126.47
2022-12-22T14:28:00.517Z,99133.09
2022-12-22T14:33:18.112Z,99145.63
2022-12-22T14:38:22.902Z,99163.22
2022-12-22T14:43:30.319Z,99164.22
2022-12-22T14:48:36.259Z,99180.41
2022-12-22T14:53:44.144Z,99199.28
2022-12-22T14:58:47.579Z,99211.38
2022-12-22T15:04:00.909Z,99224.19
2022-12-22T15:10:12.597Z,99239.50
2022-12-22T15:14:50.690Z,99251.19
2022-12-22T15:19:58.477Z,99271.75
2022-12-22T15:25:01.309Z,99275.56
2022-12-22T15:30:04.349Z,99300.34
2022-12-22T15:35:21.956Z,99322.59
2022-12-22T15:40:25.189Z,99330.25
2022-12-22T15:45:28.040Z,99323.34
2022-12-22T15:50:38.654Z,99343.00
2022-12-22T15:55:42.653Z,99339.50
2022-12-22T16:00:45.577Z,99345.78
2022-12-22T16:05:50.050Z,99352.41
2022-12-22T16:10:52.921Z,99355.53
2022-12-22T16:15:55.794Z,99363.91
2022-12-22T16:21:01.520Z,99373.94
2022-12-22T16:26:04.696Z,99381.16
2022-12-22T16:31:08.302Z,99382.59
2022-12-22T16:36:12.813Z,99395.31
2022-12-22T16:41:23.819Z,99407.31
2022-12-22T16:46:26.940Z,99406.78
2022-12-22T16:51:33.749Z,99413.41
2022-12-22T16:56:38.468Z,99418.09
2022-12-22T17:01:42.338Z,99420.50
2022-12-22T17:06:46.947Z,99430.13
2022-12-22T17:11:49.697Z,99426.53
2022-12-22T17:16:53.353Z,99429.63
2022-12-22T17:21:57.831Z,99430.94
2022-12-22T17:27:02.759Z,99435.59
2022-12-22T17:32:05.921Z,99448.84
2022-12-22T17:37:13.443Z,99452.22
2022-12-22T17:42:17.676Z,99437.97
2022-12-22T17:47:30.468Z,99424.81
2022-12-22T17:52:36.789Z,99422.97
2022-12-22T17:57:39.695Z,99422.09
2022-12-22T18:02:42.561Z,99419.38
2022-12-22T18:07:46.967Z,99410.16
2022-12-22T18:12:49.767Z,99407.28
2022-12-22T18:17:52.887Z,99416.91
2022-12-22T18:22:58.058Z,99413.91
2022-12-22T18:28:00.873Z,99419.13
2022-12-22T18:33:04.095Z,99417.59
2022-12-22T18:38:08.358Z,99411.22
2022-12-22T18:43:12.824Z,99406.16
2022-12-22T18:48:15.661Z,99415.91
2022-12-22T18:53:26.988Z,99409.97
2022-12-22T18:58:29.943Z,99414.81
2022-12-22T19:03:32.841Z,99409.13
2022-12-22T19:08:41.964Z,99412.97
2022-12-22T19:13:49.484Z,99413.97
2022-12-22T19:18:52.348Z,99403.53
2022-12-22T19:23:56.777Z,99413.53
2022-12-22T19:29:01.431Z,99401.09
2022-12-22T19:34:05.500Z,99408.31
2022-12-22T19:39:09.635Z,99401.00
2022-12-22T19:44:18.287Z,99411.72
2022-12-22T19:49:21.877Z,99414.16
2022-12-22T19:54:26.082Z,99410.47
2022-12-22T19:59:37.736Z,99407.94
2022-12-22T20:04:41.620Z,99404.25
2022-12-22T20:09:45.931Z,99406.09
2022-12-22T20:14:48.658Z,99392.81
2022-12-22T20:19:51.590Z,99394.78
2022-12-22T20:24:55.826Z,99385.75
2022-12-22T20:29:58.673Z,99391.81
2022-12-22T20:35:01.481Z,99379.38
2022-12-22T20:40:11.912Z,99391.81
2022-12-22T20:45:14.723Z,99377.53
2022-12-22T20:50:20.459Z,99379.50
2022-12-22T20:55:25.403Z,99377.81
2022-12-22T21:00:29.221Z,99360.00
2022-12-22T21:05:32.095Z,99359.16
2022-12-22T21:10:36.580Z,99349.41
2022-12-22T21:15:39.761Z,99354.09
2022-12-22T21:20:42.736Z,99358.78
2022-12-22T21:25:49.447Z,99356.94
2022-12-22T21:30:52.571Z,99351.56
2022-12-22T21:35:55.601Z,99355.09
2022-12-22T21:40:59.968Z,99351.41
2022-12-22T21:46:02.972Z,99349.25
2022-12-22T21:51:06.076Z,99334.13
2022-12-22T21:56:17.340Z,99334.44
2022-12-22T22:01:20.231Z,99328.06
2022-12-22T22:06:23.101Z,99323.13
2022-12-22T22:11:27.403Z,99319.47
2022-12-22T22:16:30.266Z,99316.31
2022-12-22T22:21:33.226Z,99305.03
2022-12-22T22:26:37.380Z,99293.16
2022-12-22T22:31:40.924Z,99282.25
2022-12-22T22:36:44.117Z,99273.88
2022-12-22T22:41:48.341Z,99276.56
2022-12-22T22:46:51.166Z,99262.16
2022-12-22T22:51:54.015Z,99260.31
2022-12-22T22:56:58.198Z,99259.47
2022-12-22T23:02:01.512Z,99246.88
2022-12-22T23:07:04.582Z,99239.69
2022-12-22T23:12:08.797Z,99234.16
2022-12-22T23:17:11.648Z,99218.88
2022-12-22T23:22:14.485Z,99205.28
2022-12-22T23:27:18.737Z,99198.22
2022-12-22T23:32:21.468Z,99188.16
2022-12-22T23:37:24.192Z,99173.03
2022-12-22T23:42:28.368Z,99184.78
2022-12-22T23:47:31.162Z,99185.63
2022-12-22T23:52:33.936Z,99178.72
2022-12-22T23:57:38.129Z,99167.16
